Flight Track Log - Related Links

Times and Time Zones

All times are in EST time to prevent confusion due to time zone crossing. See the FLG3861 flight status page for this flight to view local times or setup timezone preferences in your user account.

Time Position Orientation Groundspeed Altitude Reporting Facility
EST Latitude Longitude Course Direction KTS MPH feet Rate Location/Type
Thu 09:52:51 PM 42.2050 -83.3528 172° South 154 177 1,200  Level Cleveland Center
Thu 09:54:04 PM 42.1389 -83.3408 172° South 230 265 3,700 2,027 Climbing Cleveland Center
Thu 09:54:05 PM 42.1417 -83.3419 343° North 197 227 3,700 2,129 Level Cleveland Center
Thu 09:55:06 PM 42.0711 -83.3239 169° South 261 300 5,900 2,488 Climbing Cleveland Center
Thu 09:56:08 PM 42.0381 -83.2308 116° Southeast 290 334 8,800 2,661 Climbing Cleveland Center
Thu 09:57:10 PM 42.0842 -83.1283 59° Northeast 302 348 11,400 2,146 Climbing Cleveland Center
Thu 09:58:11 PM 42.1297 -83.0183 61° Northeast 337 388 13,200 1,659 Climbing Cleveland Center
Thu 09:59:13 PM 42.1792 -82.9003 60° Northeast 363 418 14,800 1,694 Climbing Cleveland Center
Thu 10:00:15 PM 42.2219 -82.7725 66° East 381 438 16,700 1,854 Climbing Cleveland Center
Thu 10:01:16 PM 42.2267 -82.5978 88° East 392 451 18,600 1,561 Climbing Cleveland Center
Thu 10:02:18 PM 42.2308 -82.4506 88° East 395 455 19,900 1,258 Climbing Cleveland Center
Thu 10:03:20 PM 42.2342 -82.2972 88° East 406 467 21,200 1,073 Climbing Cleveland Center
Thu 10:04:21 PM 42.2381 -82.1361 88° East 414 476 22,100 878 Climbing Cleveland Center
Thu 10:05:23 PM 42.2414 -81.9739 88° East 423 487 23,000 774 Climbing Cleveland Center
Thu 10:06:25 PM 42.2450 -81.8072 88° East 437 503 23,700 732 Climbing Cleveland Center
Thu 10:07:26 PM 42.2472 -81.6369 89° East 446 513 24,500 780 Climbing Cleveland Center
Thu 10:08:28 PM 42.2497 -81.4653 89° East 451 519 25,300 726 Climbing Cleveland Center
Thu 10:09:30 PM 42.2533 -81.2939 88° East 452 520 26,000 585 Climbing Cleveland Center
Thu 10:10:31 PM 42.2564 -81.1200 89° East 458 527 26,500 488 Climbing Cleveland Center
Thu 10:11:33 PM 42.2581 -80.9436 89° East 463 533 27,000 244 Climbing Cleveland Center
Thu 10:12:34 PM 42.2611 -80.7306 89° East 477 549 27,000  Level Cleveland Center
Thu 10:13:36 PM 42.2631 -80.5447 89° East 487 560 27,000  Level Cleveland Center
Thu 10:14:38 PM 42.2642 -80.3531 89° East 501 577 27,000  Level Cleveland Center
Thu 10:15:39 PM 42.2658 -80.1586 89° East 511 588 27,000  Level Cleveland Center
Thu 10:16:41 PM 42.2661 -79.9497 90° East 509 586 27,000  Level Cleveland Center
Thu 10:17:43 PM 42.2664 -79.7578 90° East 513 590 27,000  Level Cleveland Center
Thu 10:18:44 PM 42.2661 -79.5644 90° East 517 595 27,000  Level Cleveland Center
Thu 10:19:46 PM 42.2653 -79.3703 90° East 519 597 27,000  Level Cleveland Center
Thu 10:20:47 PM 42.2647 -79.1761 90° East 521 600 27,000  Level Cleveland Center
Thu 10:21:49 PM 42.2644 -78.9803 90° East 522 601 27,000  Level Cleveland Center
Thu 10:22:50 PM 42.2633 -78.7761 90° East 520 598 27,000  Level Cleveland Center
Thu 10:23:52 PM 42.2622 -78.5808 90° East 522 601 27,000  Level Cleveland Center
Thu 10:24:54 PM 42.2586 -78.3847 91° East 526 605 27,000 -390 Level Cleveland Center
Thu 10:25:55 PM 42.2561 -78.1531 91° East 519 597 26,200 -1,463 Descending Cleveland Center
Thu 10:26:57 PM 42.2542 -77.9667 91° East 506 582 24,000 -2,439 Descending Cleveland Center
Thu 10:27:58 PM 42.2511 -77.7867 91° East 490 564 21,200 -2,511 Descending Cleveland Center
Thu 10:30:01 PM 42.2450 -77.4622 91° East 434 499 16,300 -2,413 Descending Cleveland Center
Thu 10:31:02 PM 42.2425 -77.3008 91° East 436 502 13,800 -2,439 Descending Cleveland Center
Thu 10:32:04 PM 42.2386 -77.1525 92° East 411 473 11,300 -1,756 Descending Cleveland Center
Thu 10:33:05 PM 42.2361 -76.9986 91° East 342 394 10,200 -1,073 Descending Cleveland Center
Thu 10:34:07 PM 42.2325 -76.8819 92° East 335 386 9,100 -532 Descending New York Center
Thu 10:35:09 PM 42.2319 -76.7697 90° East 305 351 9,100  Level New York Center
Thu 10:36:10 PM 42.2267 -76.6683 94° East 300 345 9,100 -347 Level New York Center
Thu 10:37:10 PM 42.2242 -76.5494 92° East 302 348 8,400 -934 Descending Cleveland Center
Thu 10:38:12 PM 42.2211 -76.4408 92° East 294 338 7,200 -1,268 Descending Cleveland Center
Thu 10:39:13 PM 42.2136 -76.3144 95° East 294 338 5,800 -1,220 Descending Cleveland Center
Thu 10:40:10 PM 42.2058 -76.2325 97° East 294 338 4,800 -939 Descending New York Center
Thu 10:41:08 PM 42.1997 -76.1369 95° East 281 323 4,000 -400 Descending New York Center
Thu 10:42:10 PM 42.1611 -76.0722 129° Southeast 231 266 4,000  Level New York Center
Thu 10:43:08 PM 42.1153 -76.0211 140° Southeast 220 253 4,000 -410 Level New York Center
Thu 10:44:07 PM 42.1203 -75.9572 84° East 172 198 3,200 -595 Descending New York Center
Thu 10:45:09 PM 42.1525 -75.9344 28° Northeast 116 133 2,800 -585 Descending New York Center
Thu 10:46:10 PM 42.1828 -75.9592 329° Northwest 80 92 2,000 -787 Descending New York Center

Login

Don't have an account? Register now (free) for customized features, flight alerts, and more!